EGPN/DND METAR and TAF weather

Enter ICAO airport designator
Station Type Date Time Source
EGPN METAR 2022/12/05 13:50 UTC NOAA

EGPN 051350Z 03006KT 350V060 9999 FEW030 SCT045 06/01 Q1032


Station Type Date Time Source
EGPN Decoded METAR 2022/12/05 13:50 UTC NOAA

Dundee / Riverside, United Kingdom (EGPN) 56-27N 003-01W
Dec 05, 2022 - 08:50 AM EST / 2022.12.05 1350 UTC
Wind: from the NNE (030 degrees) at 7 MPH (6 KT) (direction variable):0
Visibility: greater than 7 mile(s):0
Sky conditions: partly cloudy
Temperature: 42 F (6 C)
Dew Point: 33 F (1 C)
Relative Humidity: 70%
Pressure (altimeter): 30.47 in. Hg (1032 hPa)
ob: EGPN 051350Z 03006KT 350V060 9999 FEW030 SCT045 06/01 Q1032
cycle: 14

Station Type Date Time Source
EGPN TAF 2022/02/20 18:37 UTC NOAA

TAF EGPN 201733Z 2018/2121 CNL

Example: see airport list